Time;durP1;ratioP1;P1;durP2;ratioP2;P2;SDS_P1;SDS_P2;PMS_P1;PMS_P2;Temp;Humidity;BMP_temperature;BMP_pressure;BME280_temperature;BME280_humidity;BME280_pressure;Samples;Min_cycle;Max_cycle;Signal;HPM_P1;HPM_P2
2022/09/11 00:01:41;;;;;;;;;11.33;9.33;;;;;16.76;100.00;101225.94;4868343;29;45490;-83
2022/09/11 00:04:09;;;;;;;;;12.67;11.67;;;;;16.78;100.00;101223.22;4869504;29;45467;-83
2022/09/11 00:06:34;;;;;;;;;9.67;9.67;;;;;16.71;100.00;101210.72;4869459;29;45774;-83
2022/09/11 00:09:03;;;;;;;;;10.67;10.67;;;;;16.73;100.00;101215.19;4867839;29;45659;-83
2022/09/11 00:11:31;;;;;;;;;13.00;13.00;;;;;16.71;100.00;101216.97;4867218;29;45494;-83
2022/09/11 00:13:58;;;;;;;;;10.00;10.00;;;;;16.66;100.00;101207.16;4870298;29;45470;-85
2022/09/11 00:16:33;;;;;;;;;11.33;11.33;;;;;16.67;100.00;101212.53;4871125;29;45294;-84
2022/09/11 00:19:05;;;;;;;;;8.67;8.67;;;;;16.68;100.00;101211.59;4854029;29;47301;-84
2022/09/11 00:21:30;;;;;;;;;12.33;10.00;;;;;16.68;100.00;101216.97;4871750;29;44902;-84
2022/09/11 00:23:56;;;;;;;;;10.00;10.00;;;;;16.66;100.00;101213.41;4871260;29;45579;-84
2022/09/11 00:26:24;;;;;;;;;12.33;9.67;;;;;16.66;100.00;101207.16;4873309;29;44916;-84
2022/09/11 00:28:49;;;;;;;;;10.33;10.33;;;;;16.66;100.00;101199.97;4871088;29;45445;-84
2022/09/11 00:31:20;;;;;;;;;12.67;12.67;;;;;16.60;100.00;101198.22;4874574;29;45331;-84
2022/09/11 00:33:47;;;;;;;;;11.67;11.67;;;;;16.62;100.00;101205.38;4874377;29;45500;-84
2022/09/11 00:36:19;;;;;;;;;14.33;14.00;;;;;16.62;100.00;101208.94;4870959;29;45359;-84
2022/09/11 00:38:46;;;;;;;;;13.00;13.00;;;;;16.59;100.00;101207.16;4868825;29;48048;-84
2022/09/11 00:41:24;;;;;;;;;12.67;12.67;;;;;16.60;100.00;101205.38;4870392;29;45346;-84
2022/09/11 00:44:06;;;;;;;;;13.33;13.33;;;;;16.60;100.00;101200.00;4868702;29;45401;-84
2022/09/11 00:46:38;;;;;;;;;17.00;16.00;;;;;16.59;100.00;101201.78;4870475;29;45431;-84
2022/09/11 00:49:18;;;;;;;;;12.67;10.33;;;;;16.57;100.00;101192.84;4869272;29;47015;-82
2022/09/11 00:51:48;;;;;;;;;14.67;14.67;;;;;16.55;100.00;101204.50;4870064;29;45474;-84
2022/09/11 00:54:19;;;;;;;;;14.00;13.00;;;;;16.50;100.00;101203.59;4871179;29;45404;-84
2022/09/11 00:56:46;;;;;;;;;11.00;10.00;;;;;16.47;100.00;101198.28;4854341;29;45520;-84
2022/09/11 00:59:12;;;;;;;;;12.33;12.33;;;;;16.44;100.00;101192.88;4870841;29;45696;-84
2022/09/11 01:01:38;;;;;;;;;10.33;10.33;;;;;16.44;100.00;101196.50;4870663;29;45532;-84
2022/09/11 01:04:05;;;;;;;;;13.67;11.00;;;;;16.41;100.00;101201.84;4853719;29;45390;-84
2022/09/11 01:06:31;;;;;;;;;12.00;11.33;;;;;16.39;100.00;101195.59;4869204;29;45457;-84
2022/09/11 01:08:58;;;;;;;;;12.33;12.33;;;;;16.38;100.00;101192.03;4870407;29;45742;-84
2022/09/11 01:11:43;;;;;;;;;10.00;8.67;;;;;16.36;100.00;101195.59;4869501;29;45428;-84
2022/09/11 01:14:22;;;;;;;;;4.00;4.00;;;;;16.27;100.00;101182.22;4851409;29;45518;-84
2022/09/11 01:16:55;;;;;;;;;8.00;8.00;;;;;16.27;100.00;101195.63;4849842;29;44916;-84
2022/09/11 01:20:16;;;;;;;;;11.00;11.00;;;;;16.27;100.00;101184.91;4834856;29;46872;-84
2022/09/11 01:23:12;;;;;;;;;8.67;8.67;;;;;16.23;100.00;101185.78;4849189;29;45795;-83
2022/09/11 01:25:47;;;;;;;;;9.67;9.67;;;;;16.22;100.00;101175.94;4851914;29;45483;-84
2022/09/11 01:28:18;;;;;;;;;11.00;11.00;;;;;16.20;100.00;101182.22;4851016;29;45490;-83
2022/09/11 01:30:53;;;;;;;;;9.67;9.67;;;;;16.19;100.00;101191.16;4852055;29;46546;-83
2022/09/11 01:33:37;;;;;;;;;13.00;10.00;;;;;16.19;100.00;101174.16;4834499;29;45574;-84
2022/09/11 01:36:13;;;;;;;;;11.33;10.67;;;;;16.15;100.00;101173.28;4860582;29;45521;-83
2022/09/11 01:38:49;;;;;;;;;8.00;8.00;;;;;16.18;100.00;101181.34;4871860;29;45546;-83
2022/09/11 01:41:26;;;;;;;;;9.33;9.00;;;;;16.16;100.00;101180.44;4870949;29;45442;-83
2022/09/11 01:44:35;;;;;;;;;9.67;9.67;;;;;16.14;100.00;101165.25;4871063;29;45395;-83
2022/09/11 01:47:05;;;;;;;;;10.67;10.00;;;;;16.14;100.00;101171.50;4817403;29;45647;-83
2022/09/11 01:49:37;;;;;;;;;11.67;10.33;;;;;16.15;100.00;101172.38;4834891;29;45558;-83
2022/09/11 01:52:11;;;;;;;;;8.33;7.00;;;;;16.16;100.00;101180.44;4833058;29;45601;-84
2022/09/11 01:55:00;;;;;;;;;9.33;9.33;;;;;16.17;100.00;101178.66;4832649;29;45421;-83
2022/09/11 01:57:35;;;;;;;;;11.00;10.33;;;;;16.15;100.00;101175.97;4833175;29;45602;-83
2022/09/11 02:00:05;;;;;;;;;12.33;11.67;;;;;16.13;100.00;101172.38;4832878;29;45422;-83
2022/09/11 02:02:36;;;;;;;;;10.00;10.00;;;;;16.12;100.00;101175.97;4831483;29;45355;-84
2022/09/11 02:05:24;;;;;;;;;8.67;8.67;;;;;16.12;100.00;101175.97;4815795;29;45246;-84
2022/09/11 02:07:58;;;;;;;;;15.67;12.67;;;;;16.08;100.00;101168.84;4833257;29;45422;-83
2022/09/11 02:10:42;;;;;;;;;10.33;9.00;;;;;16.09;100.00;101173.28;4817798;29;45387;-83
2022/09/11 02:13:18;;;;;;;;;13.00;10.33;;;;;16.05;100.00;101166.13;4798919;29;47137;-83
2022/09/11 02:15:48;;;;;;;;;9.00;9.00;;;;;16.06;100.00;101162.59;4814192;29;45451;-83
2022/09/11 02:18:49;;;;;;;;;15.00;11.33;;;;;16.05;100.00;101166.13;4842941;29;45768;-84
2022/09/11 02:21:15;;;;;;;;;10.33;10.33;;;;;16.03;100.00;101173.31;4822231;29;45930;-83
2022/09/11 02:23:41;;;;;;;;;11.33;9.67;;;;;15.99;100.00;101160.78;4834636;29;46981;-84
2022/09/11 02:26:08;;;;;;;;;10.67;10.67;;;;;16.04;100.00;101164.38;4852396;29;45423;-83
2022/09/11 02:28:34;;;;;;;;;10.33;10.33;;;;;16.02;100.00;101171.53;4850194;29;45459;-83
2022/09/11 02:31:02;;;;;;;;;10.00;10.00;;;;;15.97;100.00;101162.59;4835656;29;45010;-84
2022/09/11 02:33:34;;;;;;;;;10.00;10.00;;;;;16.01;100.00;101167.03;4851332;29;45916;-83
2022/09/11 02:36:39;;;;;;;;;9.00;9.00;;;;;15.98;100.00;101167.94;4852313;29;45529;-83
2022/09/11 02:39:29;;;;;;;;;10.33;9.33;;;;;16.00;100.00;101176.00;4847862;29;45339;-83
2022/09/11 02:42:14;;;;;;;;;10.33;10.33;;;;;15.99;100.00;101183.13;4851373;29;45519;-83
2022/09/11 02:44:48;;;;;;;;;15.00;12.00;;;;;15.98;100.00;101175.13;4849874;29;47220;-83
2022/09/11 02:47:32;;;;;;;;;16.33;14.00;;;;;15.96;100.00;101167.06;4849701;29;45423;-83
2022/09/11 02:50:19;;;;;;;;;12.00;12.00;;;;;15.94;100.00;101174.22;4852810;29;45758;-83
2022/09/11 02:53:06;;;;;;;;;16.00;15.00;;;;;15.96;100.00;101169.75;4851750;29;45395;-83
2022/09/11 02:55:44;;;;;;;;;15.00;13.00;;;;;15.94;100.00;101165.28;4852366;29;46168;-82
2022/09/11 02:58:30;;;;;;;;;12.67;12.67;;;;;15.89;100.00;101164.38;4851195;29;45427;-83
2022/09/11 03:01:02;;;;;;;;;14.00;14.00;;;;;15.88;100.00;101162.59;4851276;29;45546;-83
2022/09/11 03:03:43;;;;;;;;;13.67;12.00;;;;;15.90;100.00;101174.22;4852143;29;45481;-83
2022/09/11 03:06:16;;;;;;;;;15.00;14.00;;;;;15.84;100.00;101160.81;4852023;29;45164;-83
2022/09/11 03:08:41;;;;;;;;;10.67;10.67;;;;;15.84;100.00;101161.72;4836233;29;45536;-83
2022/09/11 03:11:10;;;;;;;;;13.00;13.00;;;;;15.85;100.00;101162.59;4839533;29;45322;-82
2022/09/11 03:13:43;;;;;;;;;12.33;11.67;;;;;15.85;100.00;101165.28;4884455;29;44849;-83
2022/09/11 03:16:10;;;;;;;;;14.33;13.33;;;;;15.84;100.00;101156.34;4869593;29;48669;-83
2022/09/11 03:18:35;;;;;;;;;15.00;13.67;;;;;15.86;100.00;101169.75;4869480;29;45256;-82
2022/09/11 03:21:02;;;;;;;;;13.33;13.33;;;;;15.80;100.00;101166.19;4869654;29;45333;-82
2022/09/11 03:23:28;;;;;;;;;14.00;12.33;;;;;15.84;100.00;101171.56;4879425;29;45431;-83
2022/09/11 03:25:54;;;;;;;;;14.00;14.00;;;;;15.82;100.00;101173.34;4869430;29;46077;-83
2022/09/11 03:28:21;;;;;;;;;15.00;14.00;;;;;15.78;100.00;101167.97;4867438;29;45495;-83
2022/09/11 03:30:48;;;;;;;;;15.33;15.33;;;;;15.76;100.00;101177.81;4881790;29;45486;-83
2022/09/11 03:33:13;;;;;;;;;15.67;14.33;;;;;15.73;100.00;101171.53;4867536;29;45431;-83
2022/09/11 03:35:39;;;;;;;;;15.00;15.00;;;;;15.70;100.00;101171.53;4869606;29;45438;-82
2022/09/11 03:38:04;;;;;;;;;15.00;15.00;;;;;15.68;100.00;101160.78;4867809;29;45319;-83
2022/09/11 03:40:30;;;;;;;;;16.33;14.67;;;;;15.74;100.00;101173.34;4883075;29;45472;-83
2022/09/11 03:42:55;;;;;;;;;15.33;15.33;;;;;15.69;100.00;101161.69;4869481;29;45427;-83
2022/09/11 03:45:20;;;;;;;;;14.67;12.33;;;;;15.69;100.00;101165.25;4869588;29;46447;-83
2022/09/11 03:47:46;;;;;;;;;16.00;15.00;;;;;15.66;100.00;101159.91;4866710;29;45412;-83
2022/09/11 03:50:12;;;;;;;;;13.67;12.67;;;;;15.72;100.00;101164.38;4869663;29;45375;-83
2022/09/11 03:52:38;;;;;;;;;11.33;11.33;;;;;15.68;100.00;101165.25;4867544;29;45530;-83
2022/09/11 03:55:04;;;;;;;;;14.00;13.00;;;;;15.69;100.00;101161.69;4868195;29;46815;-83
2022/09/11 03:57:34;;;;;;;;;13.00;13.00;;;;;15.64;100.00;101159.00;4870065;29;45428;-83
2022/09/11 04:00:00;;;;;;;;;9.67;9.67;;;;;15.65;100.00;101168.81;4871023;29;45416;-83
2022/09/11 04:02:26;;;;;;;;;13.00;12.33;;;;;15.65;100.00;101176.84;4877615;29;45355;-83
2022/09/11 04:04:51;;;;;;;;;16.67;15.67;;;;;15.57;100.00;101157.19;4869054;29;48180;-82
2022/09/11 04:07:16;;;;;;;;;13.67;12.33;;;;;15.58;100.00;101169.72;4870507;29;45396;-83
2022/09/11 04:09:42;;;;;;;;;13.33;11.33;;;;;15.55;100.00;101167.03;4867922;29;45412;-83
2022/09/11 04:12:07;;;;;;;;;13.33;11.67;;;;;15.54;100.00;101168.81;4869238;29;46060;-83
2022/09/11 04:14:33;;;;;;;;;12.67;12.67;;;;;15.52;100.00;101161.69;4868954;29;45431;-83
2022/09/11 04:16:58;;;;;;;;;15.33;14.00;;;;;15.48;100.00;101170.63;4867747;29;45457;-83
2022/09/11 04:19:24;;;;;;;;;13.00;13.00;;;;;15.45;100.00;101165.25;4868250;29;45458;-83
2022/09/11 04:21:50;;;;;;;;;14.67;12.00;;;;;15.45;100.00;101162.56;4866927;29;45422;-83
2022/09/11 04:24:15;;;;;;;;;11.67;11.00;;;;;15.38;100.00;101159.88;4868941;29;45427;-83
2022/09/11 04:26:41;;;;;;;;;13.33;12.67;;;;;15.34;100.00;101166.13;4869668;29;45486;-83
2022/09/11 04:29:06;;;;;;;;;11.33;11.00;;;;;15.38;100.00;101175.06;4868604;29;45470;-83
2022/09/11 04:31:34;;;;;;;;;13.33;11.00;;;;;15.37;100.00;101176.88;4866044;29;45487;-83
2022/09/11 04:34:00;;;;;;;;;13.67;13.67;;;;;15.32;100.00;101175.06;4867945;29;48547;-83
2022/09/11 04:36:26;;;;;;;;;10.67;9.33;;;;;15.28;100.00;101168.78;4854322;29;45384;-83
2022/09/11 04:38:56;;;;;;;;;14.67;13.33;;;;;15.30;100.00;101169.69;4871839;29;45367;-83
2022/09/11 04:41:22;;;;;;;;;9.00;9.00;;;;;15.25;100.00;101171.50;4872070;29;45443;-83
2022/09/11 04:43:48;;;;;;;;;11.00;11.00;;;;;15.23;100.00;101170.59;4871661;29;45422;-83
2022/09/11 04:46:16;;;;;;;;;10.67;9.67;;;;;15.30;100.00;101177.72;4870582;29;45516;-84
2022/09/11 04:48:46;;;;;;;;;15.00;13.00;;;;;15.27;100.00;101179.50;4872494;29;44932;-83
2022/09/11 04:51:26;;;;;;;;;14.33;11.00;;;;;15.28;100.00;101179.50;4871753;29;45650;-84
2022/09/11 04:53:56;;;;;;;;;11.00;9.67;;;;;15.33;100.00;101187.56;4871260;29;46317;-83
2022/09/11 04:56:23;;;;;;;;;9.00;9.00;;;;;15.34;100.00;101195.59;4870858;29;45359;-83
2022/09/11 04:58:58;;;;;;;;;12.67;11.67;;;;;15.37;100.00;101192.94;4870261;29;45396;-83
2022/09/11 05:01:26;;;;;;;;;7.00;7.00;;;;;15.40;100.00;101198.28;4873840;29;45386;-83
2022/09/11 05:03:52;;;;;;;;;6.00;6.00;;;;;15.39;100.00;101184.88;4872179;29;45391;-84
2022/09/11 05:06:18;;;;;;;;;14.33;14.33;;;;;15.42;100.00;101194.75;4872492;29;45359;-84
2022/09/11 05:08:44;;;;;;;;;12.33;12.33;;;;;15.45;100.00;101190.28;4872008;29;44779;-83
2022/09/11 05:11:15;;;;;;;;;15.00;15.00;;;;;15.51;100.00;101200.09;4872679;29;45348;-83
2022/09/11 05:13:42;;;;;;;;;17.00;15.00;;;;;15.46;100.00;101193.84;4874443;29;45492;-83
2022/09/11 05:16:14;;;;;;;;;15.00;14.67;;;;;15.54;100.00;101206.34;4874705;29;45482;-83
2022/09/11 05:18:41;;;;;;;;;16.33;16.33;;;;;15.54;100.00;101206.34;4874743;29;44786;-84
2022/09/11 05:21:13;;;;;;;;;19.67;16.00;;;;;15.58;100.00;101207.25;4874044;29;45365;-83
2022/09/11 05:23:40;;;;;;;;;21.00;19.00;;;;;15.57;100.00;101201.00;4872092;29;47220;-83
2022/09/11 05:26:12;;;;;;;;;21.00;18.67;;;;;15.64;100.00;101207.25;4870536;29;45388;-83
2022/09/11 05:28:37;;;;;;;;;25.67;20.67;;;;;15.60;100.00;101206.34;4870703;29;45739;-84
2022/09/11 05:31:15;;;;;;;;;22.00;19.33;;;;;15.68;100.00;101217.09;4869797;29;45460;-83
2022/09/11 05:33:42;;;;;;;;;24.00;19.33;;;;;15.69;100.00;101216.19;4849958;29;48139;-83
2022/09/11 05:36:08;;;;;;;;;25.67;19.67;;;;;15.74;100.00;101222.50;4834554;29;45472;-83
2022/09/11 05:38:37;;;;;;;;;19.00;17.67;;;;;15.73;100.00;101217.13;4852540;29;45431;-83
2022/09/11 05:41:10;;;;;;;;;24.67;20.33;;;;;15.71;100.00;101219.75;4852260;29;45797;-83
2022/09/11 05:43:36;;;;;;;;;22.00;22.00;;;;;15.73;100.00;101222.50;4850921;29;47072;-83
2022/09/11 05:46:03;;;;;;;;;23.00;20.33;;;;;15.77;100.00;101225.19;4859467;29;45658;-84
2022/09/11 05:48:30;;;;;;;;;17.33;16.67;;;;;15.79;100.00;101222.50;4853081;29;45516;-83
2022/09/11 05:50:58;;;;;;;;;22.67;20.00;;;;;15.79;100.00;101215.38;4870304;29;45415;-83
2022/09/11 05:53:27;;;;;;;;;22.67;19.00;;;;;15.87;100.00;101222.50;4869951;29;45441;-84
2022/09/11 05:55:53;;;;;;;;;21.67;19.00;;;;;15.85;100.00;101235.00;4870444;29;45331;-83
2022/09/11 05:58:19;;;;;;;;;15.33;14.33;;;;;15.87;100.00;101225.19;4869590;29;45324;-84
2022/09/11 06:00:46;;;;;;;;;17.00;16.00;;;;;15.89;100.00;101239.47;4854406;29;45352;-83
2022/09/11 06:03:16;;;;;;;;;16.00;15.33;;;;;15.85;100.00;101232.34;4870054;29;45246;-84
2022/09/11 06:05:43;;;;;;;;;18.00;16.00;;;;;15.91;100.00;101238.56;4871232;29;45459;-84
2022/09/11 06:08:10;;;;;;;;;17.33;16.67;;;;;15.90;100.00;101242.19;4871640;29;45420;-84
2022/09/11 06:10:36;;;;;;;;;16.67;15.33;;;;;15.93;100.00;101241.28;4869550;29;45457;-84
2022/09/11 06:13:02;;;;;;;;;21.33;18.00;;;;;15.99;100.00;101241.28;4867968;29;46668;-84
2022/09/11 06:15:28;;;;;;;;;16.00;16.00;;;;;15.97;100.00;101235.00;4870868;29;45751;-83
2022/09/11 06:17:55;;;;;;;;;16.33;15.33;;;;;16.04;100.00;101238.56;4869072;29;45479;-82
2022/09/11 06:20:21;;;;;;;;;20.33;16.00;;;;;16.06;100.00;101231.41;4852361;29;45516;-83
2022/09/11 06:22:46;;;;;;;;;17.67;17.67;;;;;16.06;100.00;101232.34;4868866;29;45554;-83
2022/09/11 06:25:11;;;;;;;;;22.00;17.33;;;;;16.12;100.00;101239.50;4852179;29;45448;-83
2022/09/11 06:27:37;;;;;;;;;18.00;17.33;;;;;16.09;100.00;101226.94;4866936;29;44928;-83
2022/09/11 06:30:04;;;;;;;;;16.00;15.00;;;;;16.18;100.00;101242.16;4852556;29;45376;-83
2022/09/11 06:32:29;;;;;;;;;18.33;15.00;;;;;16.27;100.00;101252.00;4868704;29;45212;-83
2022/09/11 06:34:55;;;;;;;;;21.67;17.33;;;;;16.38;100.00;101250.16;4868980;29;45399;-83
2022/09/11 06:37:20;;;;;;;;;19.33;17.33;;;;;16.42;100.00;101249.31;4852134;29;44839;-83
2022/09/11 06:39:45;;;;;;;;;22.67;21.33;;;;;16.42;100.00;101245.69;4870171;29;45381;-83
2022/09/11 06:42:11;;;;;;;;;19.00;17.67;;;;;16.51;100.00;101251.94;4868139;29;46665;-83
2022/09/11 06:44:36;;;;;;;;;17.33;17.33;;;;;16.58;100.00;101259.09;4868778;29;45336;-83
2022/09/11 06:47:02;;;;;;;;;18.33;15.00;;;;;16.57;100.00;101248.34;4870122;29;45308;-83
2022/09/11 06:49:28;;;;;;;;;19.00;18.33;;;;;16.64;100.00;101247.44;4852752;29;45702;-83
2022/09/11 06:51:53;;;;;;;;;20.00;17.67;;;;;16.64;100.00;101246.53;4868380;29;45520;-83
2022/09/11 06:54:19;;;;;;;;;20.00;18.67;;;;;16.65;100.00;101245.66;4867624;29;45362;-83
2022/09/11 06:56:44;;;;;;;;;19.33;17.67;;;;;16.61;100.00;101236.72;4851603;29;45432;-83
2022/09/11 06:59:10;;;;;;;;;20.67;18.00;;;;;16.70;100.00;101242.03;4868009;29;45808;-82
2022/09/11 07:01:38;;;;;;;;;21.67;19.67;;;;;16.77;100.00;101248.31;4851238;29;45482;-83
2022/09/11 07:04:03;;;;;;;;;17.67;16.00;;;;;16.78;100.00;101237.56;4851402;29;44925;-83
2022/09/11 07:06:30;;;;;;;;;23.00;18.00;;;;;16.90;100.00;101239.31;4867372;29;45347;-83
2022/09/11 07:09:01;;;;;;;;;23.33;19.00;;;;;16.97;100.00;101242.88;4867429;29;45367;-83
2022/09/11 07:11:33;;;;;;;;;14.67;14.67;;;;;16.96;100.00;101241.97;4868639;29;45732;-83
2022/09/11 07:14:04;;;;;;;;;23.33;20.67;;;;;16.95;100.00;101240.19;4851696;29;45521;-83
2022/09/11 07:16:30;;;;;;;;;22.67;20.67;;;;;16.97;100.00;101246.47;4867808;29;45423;-83
2022/09/11 07:18:57;;;;;;;;;26.00;21.33;;;;;17.04;100.00;101246.44;4868860;29;44882;-83
2022/09/11 07:21:24;;;;;;;;;20.67;18.00;;;;;17.15;100.00;101248.19;4866616;29;47106;-82
2022/09/11 07:23:53;;;;;;;;;25.00;20.67;;;;;17.20;100.00;101242.78;4870708;29;45730;-83
2022/09/11 07:26:20;;;;;;;;;21.33;20.33;;;;;17.33;100.00;101247.19;4870710;29;45402;-83
2022/09/11 07:28:49;;;;;;;;;21.67;21.00;;;;;17.33;100.00;101239.13;4872953;29;45409;-83
2022/09/11 07:31:20;;;;;;;;;24.67;20.67;;;;;17.42;100.00;101243.53;4870769;29;47198;-83
2022/09/11 07:33:47;;;;;;;;;17.00;15.33;;;;;17.53;100.00;101246.16;4873571;29;44779;-83
2022/09/11 07:36:18;;;;;;;;;20.67;17.67;;;;;17.62;100.00;101246.09;4855863;29;45475;-83
2022/09/11 07:38:45;;;;;;;;;20.00;19.00;;;;;17.74;100.00;101248.69;4853869;29;45375;-83
2022/09/11 07:41:12;;;;;;;;;21.67;20.67;;;;;17.80;100.00;101235.19;4869414;29;44986;-83
2022/09/11 07:43:40;;;;;;;;;20.67;18.33;;;;;17.92;100.00;101231.56;4869997;29;44848;-83
2022/09/11 07:46:08;;;;;;;;;21.33;20.33;;;;;18.09;100.00;101235.91;4867841;29;45439;-83
2022/09/11 07:48:34;;;;;;;;;23.33;22.33;;;;;18.18;100.00;101236.72;4867783;29;45456;-83
2022/09/11 07:51:05;;;;;;;;;19.67;18.00;;;;;18.35;100.00;101243.72;4869569;29;45296;-83
2022/09/11 07:53:42;;;;;;;;;20.33;20.33;;;;;18.54;100.00;101245.34;4868666;29;45498;-84
2022/09/11 07:56:10;;;;;;;;;23.00;19.00;;;;;18.75;100.00;101243.31;4869977;29;45522;-83
2022/09/11 07:58:41;;;;;;;;;24.33;24.33;;;;;18.91;100.00;101239.53;4870344;29;45323;-84
2022/09/11 08:01:15;;;;;;;;;31.33;27.33;;;;;19.05;100.00;101241.19;4868954;29;47172;-84
2022/09/11 08:03:41;;;;;;;;;29.33;25.67;;;;;19.11;100.00;101236.59;4868099;29;45599;-84
2022/09/11 08:06:12;;;;;;;;;25.00;25.00;;;;;19.13;100.00;101244.66;4870187;29;44790;-83
2022/09/11 08:08:40;;;;;;;;;29.00;27.33;;;;;19.18;100.00;101250.88;4868416;29;46056;-84
2022/09/11 08:11:15;;;;;;;;;24.00;22.67;;;;;19.21;100.00;101240.06;4867369;29;47891;-84
2022/09/11 08:13:40;;;;;;;;;25.67;24.00;;;;;19.30;100.00;101241.72;4847245;29;45517;-83
2022/09/11 08:16:06;;;;;;;;;25.00;25.00;;;;;19.41;100.00;101245.19;4849540;29;44941;-84
2022/09/11 08:18:34;;;;;;;;;27.33;27.33;;;;;19.53;100.00;101235.97;4848443;29;45463;-84
2022/09/11 08:21:07;;;;;;;;;26.67;26.00;;;;;19.63;100.00;101232.22;4849900;29;45437;-84
2022/09/11 08:23:33;;;;;;;;;28.00;27.00;;;;;19.82;100.00;101235.56;4847676;29;45463;-84
2022/09/11 08:26:10;;;;;;;;;26.00;23.33;;;;;19.85;100.00;101227.41;4848463;29;45529;-84
2022/09/11 08:28:36;;;;;;;;;24.67;22.67;;;;;19.73;100.00;101220.44;4848242;29;45400;-84
2022/09/11 08:31:03;;;;;;;;;17.33;16.00;;;;;19.69;100.00;101232.16;4849327;29;45503;-83
2022/09/11 08:33:29;;;;;;;;;28.67;26.33;;;;;19.67;100.00;101224.97;4849699;29;45888;-84
2022/09/11 08:36:01;;;;;;;;;29.33;26.33;;;;;19.78;100.00;101233.84;4851679;29;45323;-84
2022/09/11 08:38:26;;;;;;;;;32.67;29.67;;;;;19.80;100.00;101226.63;4835649;29;45384;-84
2022/09/11 08:41:10;;;;;;;;;29.33;25.67;;;;;19.93;100.00;101240.78;4852585;29;46769;-84
2022/09/11 08:43:54;;;;;;;;;29.00;29.00;;;;;19.99;100.00;101249.66;4851214;29;45380;-84
2022/09/11 08:46:25;;;;;;;;;30.33;30.33;;;;;20.06;100.00;101250.47;4851474;29;45449;-84
2022/09/11 08:49:26;;;;;;;;;34.00;31.00;;;;;20.04;100.00;101249.63;4852413;29;44930;-83
2022/09/11 08:51:57;;;;;;;;;34.33;30.67;;;;;19.94;100.00;101246.16;4852229;29;46499;-83
2022/09/11 08:54:31;;;;;;;;;29.00;28.00;;;;;19.91;100.00;101245.31;4852418;29;45199;-83
2022/09/11 08:57:22;;;;;;;;;29.33;29.33;;;;;19.85;100.00;101261.63;4852216;29;45444;-83
2022/09/11 09:00:04;;;;;;;;;34.33;31.67;;;;;19.75;100.00;101256.38;4851998;29;45309;-83
2022/09/11 09:02:44;;;;;;;;;39.33;33.33;;;;;19.68;100.00;101254.66;4851652;29;48461;-84
2022/09/11 09:05:25;;;;;;;;;38.00;34.00;;;;;19.66;100.00;101255.59;4853712;29;45679;-84
2022/09/11 09:08:05;;;;;;;;;40.33;35.00;;;;;19.58;100.00;101259.28;4854422;29;45313;-83
2022/09/11 09:10:55;;;;;;;;;40.33;36.00;;;;;19.46;100.00;101247.81;4852836;29;44870;-83
2022/09/11 09:13:50;;;;;;;;;35.33;32.00;;;;;19.37;100.00;101243.44;4852935;29;47123;-83
2022/09/11 09:16:41;;;;;;;;;42.67;36.00;;;;;19.36;100.00;101263.22;4852720;29;45446;-83
2022/09/11 09:19:13;;;;;;;;;42.33;35.33;;;;;19.36;100.00;101257.81;4852738;29;45456;-83
2022/09/11 09:21:54;;;;;;;;;40.00;35.33;;;;;19.41;100.00;101249.66;4853467;29;45443;-83
2022/09/11 09:24:20;;;;;;;;;43.67;38.00;;;;;19.47;100.00;101254.97;4851869;29;47285;-84
2022/09/11 09:26:55;;;;;;;;;43.33;38.33;;;;;19.51;100.00;101256.69;4837257;29;45403;-84
2022/09/11 09:29:22;;;;;;;;;40.00;34.67;;;;;19.51;100.00;101251.31;4853343;29;44865;-83
2022/09/11 09:32:02;;;;;;;;;41.00;37.00;;;;;19.53;100.00;101249.47;4851485;29;45446;-83
2022/09/11 09:34:34;;;;;;;;;43.67;37.00;;;;;19.65;100.00;101261.91;4850774;29;46796;-83
2022/09/11 09:37:22;;;;;;;;;41.33;36.00;;;;;19.69;100.00;101260.94;4850645;29;45448;-83
2022/09/11 09:39:48;;;;;;;;;43.00;38.00;;;;;19.75;100.00;101256.38;4852007;29;45550;-83
2022/09/11 09:42:27;;;;;;;;;47.00;38.00;;;;;19.89;100.00;101248.03;4851691;29;44825;-83
2022/09/11 09:45:03;;;;;;;;;46.67;39.67;;;;;19.98;100.00;101241.63;4849830;29;47371;-83
2022/09/11 09:47:29;;;;;;;;;36.00;31.33;;;;;20.04;100.00;101243.34;4852300;29;45571;-83
2022/09/11 09:49:59;;;;;;;;;32.67;31.00;;;;;20.09;100.00;101238.72;4850982;29;45465;-83
2022/09/11 09:52:32;;;;;;;;;27.33;24.33;;;;;20.14;100.00;101237.72;4853255;29;45382;-83
2022/09/11 09:55:12;;;;;;;;;28.33;25.33;;;;;20.35;100.00;101233.75;4853393;29;45428;-83
2022/09/11 09:57:42;;;;;;;;;22.67;19.67;;;;;20.55;100.00;101241.47;4851706;29;45198;-83
2022/09/11 10:00:11;;;;;;;;;27.33;23.00;;;;;20.76;100.00;101244.69;4836402;29;45459;-83
2022/09/11 10:02:54;;;;;;;;;25.00;22.33;;;;;20.89;100.00;101238.13;4852122;29;45454;-83
2022/09/11 10:05:42;;;;;;;;;21.00;21.00;;;;;20.88;100.00;101238.16;4852104;29;47520;-83
2022/09/11 10:08:34;;;;;;;;;14.33;13.00;;;;;20.90;100.00;101244.41;4853877;29;45458;-83
2022/09/11 10:11:09;;;;;;;;;20.00;20.00;;;;;20.95;100.00;101229.88;4853176;29;45434;-83
2022/09/11 10:13:51;;;;;;;;;17.67;16.67;;;;;21.14;100.00;101232.19;4853366;29;45535;-83
2022/09/11 10:16:27;;;;;;;;;23.33;21.33;;;;;21.24;100.00;101232.88;4853057;29;46997;-83
2022/09/11 10:18:54;;;;;;;;;12.67;12.67;;;;;21.27;100.00;101235.50;4837118;29;45476;-83
2022/09/11 10:21:20;;;;;;;;;11.67;9.33;;;;;21.35;100.00;101231.72;4838825;29;45335;-83
2022/09/11 10:23:53;;;;;;;;;3.00;0.00;;;;;21.46;100.00;101238.75;4852833;29;45482;-83
2022/09/11 10:26:27;;;;;;;;;12.67;12.33;;;;;21.57;100.00;101225.81;4851866;29;46859;-83
2022/09/11 10:28:58;;;;;;;;;12.67;12.67;;;;;21.52;100.00;101227.75;4853275;29;44829;-83
2022/09/11 10:31:25;;;;;;;;;16.33;14.00;;;;;21.46;100.00;101227.91;4852697;29;45443;-83
2022/09/11 10:33:57;;;;;;;;;14.00;14.00;;;;;21.32;100.00;101220.97;4851677;29;45421;-83
2022/09/11 10:36:26;;;;;;;;;14.67;14.67;;;;;21.25;100.00;101215.72;4852695;29;46731;-83
2022/09/11 10:38:52;;;;;;;;;11.67;11.67;;;;;21.38;100.00;101226.22;4852985;29;45392;-83
2022/09/11 10:41:33;;;;;;;;;15.00;13.00;;;;;21.57;100.00;101217.69;4837045;29;44902;-83
2022/09/11 10:44:11;;;;;;;;;10.33;8.33;;;;;21.69;100.00;101217.44;4851713;29;45454;-83
2022/09/11 10:46:42;;;;;;;;;11.33;9.67;;;;;21.76;100.00;101202.81;4852784;29;45468;-83
2022/09/11 10:49:14;;;;;;;;;11.00;9.00;;;;;21.78;100.00;101208.19;4853286;29;45453;-83
2022/09/11 10:51:41;;;;;;;;;14.00;11.00;;;;;21.79;100.00;101193.69;4852944;29;44802;-83
2022/09/11 10:54:13;;;;;;;;;9.00;9.00;;;;;21.82;100.00;101209.00;4853813;29;45350;-84
2022/09/11 10:57:04;;;;;;;;;10.00;9.00;;;;;21.68;100.00;101196.69;4853037;29;46164;-83
2022/09/11 10:59:41;;;;;;;;;8.67;8.67;;;;;21.59;100.00;101202.31;4843937;29;45460;-84
2022/09/11 11:02:18;;;;;;;;;12.67;10.00;;;;;21.48;100.00;101182.75;4850268;29;45412;-84
2022/09/11 11:04:45;;;;;;;;;10.00;10.00;;;;;21.43;100.00;101190.09;4834336;29;45486;-84
2022/09/11 11:07:28;;;;;;;;;12.00;12.00;;;;;21.43;100.00;101177.47;4851262;29;45492;-83
2022/09/11 11:09:56;;;;;;;;;10.33;10.33;;;;;21.62;100.00;101190.56;4852687;29;45393;-84
2022/09/11 11:12:56;;;;;;;;;11.67;11.67;;;;;21.70;100.00;101178.59;4851164;29;45424;-83
2022/09/11 11:15:46;;;;;;;;;9.33;9.33;;;;;21.76;100.00;101185.69;4851308;29;45339;-85
2022/09/11 11:18:49;;;;;;;;;12.00;12.00;;;;;21.71;100.00;101172.28;4850649;29;46927;-84
2022/09/11 11:21:40;;;;;;;;;13.00;13.00;;;;;21.83;100.00;101178.28;4851884;29;45371;-83
2022/09/11 11:24:06;;;;;;;;;10.00;9.00;;;;;21.84;100.00;101177.38;4851456;29;44773;-83
2022/09/11 11:26:48;;;;;;;;;10.00;9.00;;;;;21.84;98.59;101166.53;4850155;29;44852;-83